KLWB

Greenbrier Valley Airport

Lewisburg, West Virginia, USA
KLWB 221120Z 2212/2312 VRB03KT P6SM BKN150 FM221800 13006KT P6SM SCT120 FM230500 VRB04KT P6SM BKN200 FM230700 15005KT P6SM BKN120 WS020/20030KT FM230900 16005KT P6SM BKN035 WS020/21035KT
Issued Valid From Valid To
Jan-22 @ 11:20 UTC
(6 hours ago)
Jan-22 @ 12:00 UTC
(5 hours ago)
Jan-23 @ 12:00 UTC
(in 19 hours)
Jan-22 @ 12:00 to Jan-22 @ 18:00
KLWB 221120Z 2212/2312 VRB03KT P6SM BKN150
Wind Visibility Clouds
Variable at 3 knots Greater than 6 miles
  • Broken at 15,000' AGL
From Jan-22 @ 18:00 to Jan-23 @ 05:00
FM221800 13006KT P6SM SCT120
Wind Visibility Clouds
130° at 6 knots Greater than 6 miles
  • Scattered at 12,000' AGL
From Jan-23 @ 05:00 to Jan-23 @ 07:00
FM230500 VRB04KT P6SM BKN200
Wind Visibility Clouds
Variable at 4 knots Greater than 6 miles
  • Broken at 20,000' AGL
From Jan-23 @ 07:00 to Jan-23 @ 09:00
FM230700 15005KT P6SM BKN120 WS020/20030KT
Wind Visibility Clouds
150° at 5 knots
 Wind shear 2,000' AGL from 200° at 30 knots
Greater than 6 miles
  • Broken at 12,000' AGL
From Jan-23 @ 09:00 to Jan-23 @ 12:00
FM230900 16005KT P6SM BKN035 WS020/21035KT
Wind Visibility Clouds
160° at 5 knots
 Wind shear 2,000' AGL from 210° at 35 knots
Greater than 6 miles
  • Broken at 3,500' AGL
KLWB 221120Z 2212/2312 VRB03KT P6SM BKN150 FM221800 13006KT P6SM SCT120 FM230500 VRB04KT P6SM BKN200 FM230700 15005KT P6SM BKN120 WS020/20030KT FM230900 16005KT P6SM BKN035 WS020/21035KT
Issued Jan-22 @ 11:20 UTC
(6 hours ago)
Valid From Jan-22 @ 12:00 UTC
(5 hours ago)
Valid To Jan-23 @ 12:00 UTC
(in 19 hours)
Jan-22 @ 12:00 - Jan-22 @ 18:00
Wind Visibility
Variable at 3 knots Greater than 6 miles
Clouds
  • Broken at 15,000' AGL
From Jan-22 @ 18:00 - Jan-23 @ 05:00
Wind Visibility
130° at 6 knots Greater than 6 miles
Clouds
  • Scattered at 12,000' AGL
From Jan-23 @ 05:00 - Jan-23 @ 07:00
Wind Visibility
Variable at 4 knots Greater than 6 miles
Clouds
  • Broken at 20,000' AGL
From Jan-23 @ 07:00 - Jan-23 @ 09:00
Wind Visibility
150° at 5 knots Greater than 6 miles
Clouds
  • Broken at 12,000' AGL
From Jan-23 @ 09:00 - Jan-23 @ 12:00
Wind Visibility
160° at 5 knots Greater than 6 miles
Clouds
  • Broken at 3,500' AGL